sensor_id;sensor_type;location;lat;lon;timestamp;pressure;altitude;pressure_sealevel;temperature;humidity
28428;BME280;15662;49.128;8.520;2022-11-11T00:00:23;101921.38;;;13.04;53.96
28428;BME280;15662;49.128;8.520;2022-11-11T00:03:10;101922.28;;;13.00;54.03
28428;BME280;15662;49.128;8.520;2022-11-11T00:06:09;101917.88;;;12.99;53.83
28428;BME280;15662;49.128;8.520;2022-11-11T00:08:56;101925.91;;;12.95;54.28
28428;BME280;15662;49.128;8.520;2022-11-11T00:11:42;101920.59;;;12.95;53.92
28428;BME280;15662;49.128;8.520;2022-11-11T00:14:29;101924.13;;;12.97;54.31
28428;BME280;15662;49.128;8.520;2022-11-11T00:17:16;101932.09;;;12.95;53.92
28428;BME280;15662;49.128;8.520;2022-11-11T00:20:22;101934.81;;;12.90;54.13
28428;BME280;15662;49.128;8.520;2022-11-11T00:23:30;101939.38;;;12.81;54.08
28428;BME280;15662;49.128;8.520;2022-11-11T00:26:35;101933.22;;;12.74;53.87
28428;BME280;15662;49.128;8.520;2022-11-11T00:29:25;101927.97;;;12.65;53.70
28428;BME280;15662;49.128;8.520;2022-11-11T00:32:12;101934.22;;;12.62;53.54
28428;BME280;15662;49.128;8.520;2022-11-11T00:35:09;101935.13;;;12.61;53.96
28428;BME280;15662;49.128;8.520;2022-11-11T00:38:14;101924.53;;;12.54;53.92
28428;BME280;15662;49.128;8.520;2022-11-11T00:41:23;101928.97;;;12.53;53.78
28428;BME280;15662;49.128;8.520;2022-11-11T00:44:10;101921.97;;;12.45;53.80
28428;BME280;15662;49.128;8.520;2022-11-11T00:46:57;101940.53;;;12.49;53.85
28428;BME280;15662;49.128;8.520;2022-11-11T00:50:05;101948.53;;;12.46;53.73
28428;BME280;15662;49.128;8.520;2022-11-11T00:53:15;101945.06;;;12.39;53.68
28428;BME280;15662;49.128;8.520;2022-11-11T00:56:10;101948.63;;;12.35;53.89
28428;BME280;15662;49.128;8.520;2022-11-11T00:58:56;101956.66;;;12.29;53.78
28428;BME280;15662;49.128;8.520;2022-11-11T01:01:43;101959.31;;;12.29;53.47
28428;BME280;15662;49.128;8.520;2022-11-11T01:04:30;101948.72;;;12.23;53.84
28428;BME280;15662;49.128;8.520;2022-11-11T01:07:16;101948.72;;;12.25;53.69
28428;BME280;15662;49.128;8.520;2022-11-11T01:10:03;101955.81;;;12.24;53.60
28428;BME280;15662;49.128;8.520;2022-11-11T01:12:53;101962.91;;;12.21;53.44
28428;BME280;15662;49.128;8.520;2022-11-11T01:16:05;101969.13;;;12.21;53.69
28428;BME280;15662;49.128;8.520;2022-11-11T01:18:53;101957.63;;;12.16;53.58
28428;BME280;15662;49.128;8.520;2022-11-11T01:21:40;101955.00;;;12.11;53.63
28428;BME280;15662;49.128;8.520;2022-11-11T01:24:27;101964.72;;;12.16;53.71
28428;BME280;15662;49.128;8.520;2022-11-11T01:27:14;101947.94;;;12.06;53.38
28428;BME280;15662;49.128;8.520;2022-11-11T01:30:01;101971.84;;;12.13;53.64
28428;BME280;15662;49.128;8.520;2022-11-11T01:32:47;101970.94;;;12.14;53.70
28428;BME280;15662;49.128;8.520;2022-11-11T01:35:40;101965.63;;;12.11;53.57
28428;BME280;15662;49.128;8.520;2022-11-11T01:38:26;101970.22;;;11.93;53.90
28428;BME280;15662;49.128;8.520;2022-11-11T01:41:17;101968.38;;;11.99;53.70
28428;BME280;15662;49.128;8.520;2022-11-11T01:44:46;101961.28;;;12.03;53.55
28428;BME280;15662;49.128;8.520;2022-11-11T01:47:34;101962.16;;;12.02;53.71
28428;BME280;15662;49.128;8.520;2022-11-11T01:50:59;101966.66;;;11.94;53.68
28428;BME280;15662;49.128;8.520;2022-11-11T01:53:56;101967.53;;;11.94;53.42
28428;BME280;15662;49.128;8.520;2022-11-11T01:56:50;101964.91;;;11.86;53.51
28428;BME280;15662;49.128;8.520;2022-11-11T01:59:41;101973.75;;;11.81;53.35
28428;BME280;15662;49.128;8.520;2022-11-11T02:02:40;101978.22;;;11.76;53.46
28428;BME280;15662;49.128;8.520;2022-11-11T02:05:28;101975.63;;;11.65;53.48
28428;BME280;15662;49.128;8.520;2022-11-11T02:08:36;101972.06;;;11.66;53.48
28428;BME280;15662;49.128;8.520;2022-11-11T02:11:25;101979.13;;;11.70;53.43
28428;BME280;15662;49.128;8.520;2022-11-11T02:14:48;101976.47;;;11.73;53.81
28428;BME280;15662;49.128;8.520;2022-11-11T02:17:37;101970.28;;;11.73;54.13
28428;BME280;15662;49.128;8.520;2022-11-11T02:20:27;101963.16;;;11.76;53.62
28428;BME280;15662;49.128;8.520;2022-11-11T02:26:09;101953.41;;;11.80;53.49
28428;BME280;15662;49.128;8.520;2022-11-11T02:28:56;101952.53;;;11.78;53.45
28428;BME280;15662;49.128;8.520;2022-11-11T02:31:44;101952.53;;;11.79;53.49
28428;BME280;15662;49.128;8.520;2022-11-11T02:34:32;101947.22;;;11.78;53.39
28428;BME280;15662;49.128;8.520;2022-11-11T02:37:23;101945.44;;;11.80;53.86
28428;BME280;15662;49.128;8.520;2022-11-11T02:40:28;101948.09;;;11.77;53.69
28428;BME280;15662;49.128;8.520;2022-11-11T02:43:16;101953.44;;;11.74;53.78
28428;BME280;15662;49.128;8.520;2022-11-11T02:46:05;101957.88;;;11.73;53.50
28428;BME280;15662;49.128;8.520;2022-11-11T02:48:52;101958.78;;;11.69;53.72
28428;BME280;15662;49.128;8.520;2022-11-11T02:51:40;101971.16;;;11.70;53.51
28428;BME280;15662;49.128;8.520;2022-11-11T02:54:26;101961.44;;;11.69;53.84
28428;BME280;15662;49.128;8.520;2022-11-11T02:57:13;101969.38;;;11.72;53.78
28428;BME280;15662;49.128;8.520;2022-11-11T03:00:00;101963.19;;;11.73;54.02
28428;BME280;15662;49.128;8.520;2022-11-11T03:02:48;101964.94;;;11.76;53.97
28428;BME280;15662;49.128;8.520;2022-11-11T03:05:35;101957.88;;;11.75;53.69
28428;BME280;15662;49.128;8.520;2022-11-11T03:08:22;101961.41;;;11.71;53.61
28428;BME280;15662;49.128;8.520;2022-11-11T03:11:09;101954.31;;;11.71;53.68
28428;BME280;15662;49.128;8.520;2022-11-11T03:13:57;101939.28;;;11.67;53.86
28428;BME280;15662;49.128;8.520;2022-11-11T03:16:45;101941.09;;;11.68;53.67
28428;BME280;15662;49.128;8.520;2022-11-11T03:19:50;101940.22;;;11.61;53.77
28428;BME280;15662;49.128;8.520;2022-11-11T03:22:37;101953.50;;;11.63;53.61
28428;BME280;15662;49.128;8.520;2022-11-11T03:25:43;101977.41;;;11.60;53.67
28428;BME280;15662;49.128;8.520;2022-11-11T03:28:30;101969.47;;;11.54;53.85
28428;BME280;15662;49.128;8.520;2022-11-11T03:31:17;101974.78;;;11.54;53.96
28428;BME280;15662;49.128;8.520;2022-11-11T03:34:03;101980.97;;;11.51;53.88
28428;BME280;15662;49.128;8.520;2022-11-11T03:37:25;101986.31;;;11.48;54.23
28428;BME280;15662;49.128;8.520;2022-11-11T03:40:30;102005.78;;;11.50;54.19
28428;BME280;15662;49.128;8.520;2022-11-11T03:43:18;102011.09;;;11.50;53.92
28428;BME280;15662;49.128;8.520;2022-11-11T03:46:06;102014.66;;;11.45;53.74
28428;BME280;15662;49.128;8.520;2022-11-11T03:48:52;102023.50;;;11.48;54.07
28428;BME280;15662;49.128;8.520;2022-11-11T03:51:39;102014.63;;;11.51;53.88
28428;BME280;15662;49.128;8.520;2022-11-11T03:54:26;102024.38;;;11.53;54.12
28428;BME280;15662;49.128;8.520;2022-11-11T03:57:12;102029.66;;;11.58;54.15
28428;BME280;15662;49.128;8.520;2022-11-11T04:00:24;102031.41;;;11.62;54.37
28428;BME280;15662;49.128;8.520;2022-11-11T04:03:17;102026.94;;;11.67;54.42
28428;BME280;15662;49.128;8.520;2022-11-11T04:06:23;102042.88;;;11.72;54.70
28428;BME280;15662;49.128;8.520;2022-11-11T04:09:29;102035.75;;;11.77;54.63
28428;BME280;15662;49.128;8.520;2022-11-11T04:12:34;102036.69;;;11.83;55.04
28428;BME280;15662;49.128;8.520;2022-11-11T04:15:41;102032.22;;;11.87;54.83
28428;BME280;15662;49.128;8.520;2022-11-11T04:18:54;102031.34;;;11.88;55.10
28428;BME280;15662;49.128;8.520;2022-11-11T04:22:00;102039.25;;;11.96;55.47
28428;BME280;15662;49.128;8.520;2022-11-11T04:24:47;102041.94;;;11.97;55.04
28428;BME280;15662;49.128;8.520;2022-11-11T04:28:03;102046.34;;;12.00;55.44
28428;BME280;15662;49.128;8.520;2022-11-11T04:31:08;102039.25;;;12.00;55.33
28428;BME280;15662;49.128;8.520;2022-11-11T04:33:55;102045.41;;;12.05;55.41
28428;BME280;15662;49.128;8.520;2022-11-11T04:36:41;102064.88;;;12.10;55.62
28428;BME280;15662;49.128;8.520;2022-11-11T04:39:29;102064.03;;;12.08;55.40
28428;BME280;15662;49.128;8.520;2022-11-11T04:42:34;102065.78;;;12.12;55.63
28428;BME280;15662;49.128;8.520;2022-11-11T04:45:21;102062.25;;;12.09;55.91
28428;BME280;15662;49.128;8.520;2022-11-11T04:48:13;102058.75;;;11.98;56.01
28428;BME280;15662;49.128;8.520;2022-11-11T04:51:02;102062.25;;;12.09;56.14
28428;BME280;15662;49.128;8.520;2022-11-11T04:53:49;102070.19;;;12.13;55.99
28428;BME280;15662;49.128;8.520;2022-11-11T04:56:35;102067.50;;;12.17;56.26
28428;BME280;15662;49.128;8.520;2022-11-11T04:59:35;102067.50;;;12.18;56.33
28428;BME280;15662;49.128;8.520;2022-11-11T05:02:22;102079.91;;;12.19;56.29
28428;BME280;15662;49.128;8.520;2022-11-11T05:05:29;102083.47;;;12.18;56.26
28428;BME280;15662;49.128;8.520;2022-11-11T05:08:41;102072.81;;;12.17;56.44
28428;BME280;15662;49.128;8.520;2022-11-11T05:11:44;102087.00;;;12.19;56.71
28428;BME280;15662;49.128;8.520;2022-11-11T05:14:33;102087.00;;;12.20;56.87
28428;BME280;15662;49.128;8.520;2022-11-11T05:17:39;102088.75;;;12.24;57.15
28428;BME280;15662;49.128;8.520;2022-11-11T05:20:49;102081.69;;;12.22;56.81
28428;BME280;15662;49.128;8.520;2022-11-11T05:23:54;102086.97;;;12.28;57.10
28428;BME280;15662;49.128;8.520;2022-11-11T05:27:00;102102.88;;;12.37;57.33
28428;BME280;15662;49.128;8.520;2022-11-11T05:29:47;102083.38;;;12.35;57.19
28428;BME280;15662;49.128;8.520;2022-11-11T05:32:34;102091.28;;;12.41;57.10
28428;BME280;15662;49.128;8.520;2022-11-11T05:35:21;102101.03;;;12.45;57.12
28428;BME280;15662;49.128;8.520;2022-11-11T05:38:07;102094.81;;;12.46;57.29
28428;BME280;15662;49.128;8.520;2022-11-11T05:41:08;102095.69;;;12.51;57.44
28428;BME280;15662;49.128;8.520;2022-11-11T05:43:56;102089.47;;;12.52;57.25
28428;BME280;15662;49.128;8.520;2022-11-11T05:46:46;102092.13;;;12.54;57.21
28428;BME280;15662;49.128;8.520;2022-11-11T05:49:33;102085.94;;;12.52;57.17
28428;BME280;15662;49.128;8.520;2022-11-11T05:52:20;102102.75;;;12.57;57.24
28428;BME280;15662;49.128;8.520;2022-11-11T05:55:07;102103.63;;;12.56;57.47
28428;BME280;15662;49.128;8.520;2022-11-11T05:57:55;102109.88;;;12.53;57.63
28428;BME280;15662;49.128;8.520;2022-11-11T06:00:42;102122.28;;;12.53;57.33
28428;BME280;15662;49.128;8.520;2022-11-11T06:03:29;102129.38;;;12.54;57.54
28428;BME280;15662;49.128;8.520;2022-11-11T06:06:15;102126.69;;;12.57;57.58
28428;BME280;15662;49.128;8.520;2022-11-11T06:09:03;102114.31;;;12.50;57.88
28428;BME280;15662;49.128;8.520;2022-11-11T06:11:50;102138.19;;;12.62;57.98
28428;BME280;15662;49.128;8.520;2022-11-11T06:14:37;102122.22;;;12.60;57.73
28428;BME280;15662;49.128;8.520;2022-11-11T06:17:23;102132.84;;;12.65;57.69
28428;BME280;15662;49.128;8.520;2022-11-11T06:20:10;102142.56;;;12.72;57.81
28428;BME280;15662;49.128;8.520;2022-11-11T06:22:56;102139.00;;;12.73;57.69
28428;BME280;15662;49.128;8.520;2022-11-11T06:25:43;102132.81;;;12.70;57.92
28428;BME280;15662;49.128;8.520;2022-11-11T06:28:55;102146.09;;;12.73;57.63
28428;BME280;15662;49.128;8.520;2022-11-11T06:31:45;102142.56;;;12.72;57.77
28428;BME280;15662;49.128;8.520;2022-11-11T06:34:32;102139.88;;;12.71;57.77
28428;BME280;15662;49.128;8.520;2022-11-11T06:37:18;102147.81;;;12.80;57.81
28428;BME280;15662;49.128;8.520;2022-11-11T06:40:05;102130.09;;;12.79;57.90
28428;BME280;15662;49.128;8.520;2022-11-11T06:42:52;102134.53;;;12.78;57.94
28428;BME280;15662;49.128;8.520;2022-11-11T06:45:39;102141.56;;;12.87;57.66
28428;BME280;15662;49.128;8.520;2022-11-11T06:48:27;102138.91;;;12.84;57.81
28428;BME280;15662;49.128;8.520;2022-11-11T06:51:14;102153.06;;;12.92;57.91
28428;BME280;15662;49.128;8.520;2022-11-11T06:54:01;102138.00;;;12.91;57.80
28428;BME280;15662;49.128;8.520;2022-11-11T06:56:48;102152.16;;;12.95;57.72
28428;BME280;15662;49.128;8.520;2022-11-11T06:59:34;102153.91;;;12.97;57.60
28428;BME280;15662;49.128;8.520;2022-11-11T07:02:22;102157.44;;;12.99;57.73
28428;BME280;15662;49.128;8.520;2022-11-11T07:05:10;102164.53;;;13.02;57.83
28428;BME280;15662;49.128;8.520;2022-11-11T07:08:05;102145.84;;;13.05;57.69
28428;BME280;15662;49.128;8.520;2022-11-11T07:10:52;102151.19;;;13.05;57.84
28428;BME280;15662;49.128;8.520;2022-11-11T07:13:39;102152.94;;;13.09;57.80
28428;BME280;15662;49.128;8.520;2022-11-11T07:16:26;102154.69;;;13.13;57.85
28428;BME280;15662;49.128;8.520;2022-11-11T07:19:14;102161.78;;;13.12;57.86
28428;BME280;15662;49.128;8.520;2022-11-11T07:22:01;102163.56;;;13.12;57.78
28428;BME280;15662;49.128;8.520;2022-11-11T07:24:48;102162.69;;;13.08;58.20
28428;BME280;15662;49.128;8.520;2022-11-11T07:27:39;102169.78;;;13.15;57.86
28428;BME280;15662;49.128;8.520;2022-11-11T07:30:26;102170.69;;;13.11;57.80
28428;BME280;15662;49.128;8.520;2022-11-11T07:33:13;102160.94;;;13.10;57.89
28428;BME280;15662;49.128;8.520;2022-11-11T07:36:00;102169.72;;;13.23;57.75
28428;BME280;15662;49.128;8.520;2022-11-11T07:38:47;102178.53;;;13.30;57.71
28428;BME280;15662;49.128;8.520;2022-11-11T07:41:34;102178.50;;;13.34;57.73
28428;BME280;15662;49.128;8.520;2022-11-11T07:44:21;102174.09;;;13.35;57.80
28428;BME280;15662;49.128;8.520;2022-11-11T07:47:07;102176.72;;;13.36;57.72
28428;BME280;15662;49.128;8.520;2022-11-11T07:49:55;102172.31;;;13.35;57.97
28428;BME280;15662;49.128;8.520;2022-11-11T07:52:48;102174.91;;;13.38;57.70
28428;BME280;15662;49.128;8.520;2022-11-11T07:55:36;102175.78;;;13.42;57.82
28428;BME280;15662;49.128;8.520;2022-11-11T07:58:22;102172.19;;;13.45;57.87
28428;BME280;15662;49.128;8.520;2022-11-11T08:01:11;102182.81;;;13.49;57.93
28428;BME280;15662;49.128;8.520;2022-11-11T08:03:58;102167.78;;;13.45;58.00
28428;BME280;15662;49.128;8.520;2022-11-11T08:06:45;102188.13;;;13.52;57.96
28428;BME280;15662;49.128;8.520;2022-11-11T08:09:32;102184.53;;;13.56;57.85
28428;BME280;15662;49.128;8.520;2022-11-11T08:12:18;102190.72;;;13.58;57.78
28428;BME280;15662;49.128;8.520;2022-11-11T08:15:24;102188.09;;;13.57;57.85
28428;BME280;15662;49.128;8.520;2022-11-11T08:18:13;102188.94;;;13.60;57.69
28428;BME280;15662;49.128;8.520;2022-11-11T08:21:02;102183.56;;;13.66;57.79
28428;BME280;15662;49.128;8.520;2022-11-11T08:23:52;102181.06;;;13.47;57.89
28428;BME280;15662;49.128;8.520;2022-11-11T08:26:59;102173.91;;;13.55;58.04
28428;BME280;15662;49.128;8.520;2022-11-11T08:29:46;102179.16;;;13.62;57.90
28428;BME280;15662;49.128;8.520;2022-11-11T08:32:33;102176.47;;;13.65;58.04
28428;BME280;15662;49.128;8.520;2022-11-11T08:35:21;102166.72;;;13.61;58.02
28428;BME280;15662;49.128;8.520;2022-11-11T08:38:08;102164.03;;;13.66;58.12
28428;BME280;15662;49.128;8.520;2022-11-11T08:41:00;102171.09;;;13.70;58.01
28428;BME280;15662;49.128;8.520;2022-11-11T08:43:47;102170.41;;;13.50;58.57
28428;BME280;15662;49.128;8.520;2022-11-11T08:46:36;102172.00;;;13.67;58.52
28428;BME280;15662;49.128;8.520;2022-11-11T08:49:22;102171.94;;;13.72;58.41
28428;BME280;15662;49.128;8.520;2022-11-11T08:52:09;102179.84;;;13.84;58.21
28428;BME280;15662;49.128;8.520;2022-11-11T08:54:57;102177.09;;;13.90;58.17
28428;BME280;15662;49.128;8.520;2022-11-11T08:57:46;102181.50;;;13.93;58.20
28428;BME280;15662;49.128;8.520;2022-11-11T09:00:33;102187.72;;;13.95;57.94
28428;BME280;15662;49.128;8.520;2022-11-11T09:03:20;102174.38;;;13.95;58.08
28428;BME280;15662;49.128;8.520;2022-11-11T09:06:06;102190.31;;;14.00;58.23
28428;BME280;15662;49.128;8.520;2022-11-11T09:08:53;102177.94;;;13.94;58.44
28428;BME280;15662;49.128;8.520;2022-11-11T09:11:40;102192.97;;;14.01;58.45
28428;BME280;15662;49.128;8.520;2022-11-11T09:14:27;102185.81;;;14.03;58.25
28428;BME280;15662;49.128;8.520;2022-11-11T09:17:16;102177.81;;;14.05;58.32
28428;BME280;15662;49.128;8.520;2022-11-11T09:20:02;102161.88;;;14.00;58.34
28428;BME280;15662;49.128;8.520;2022-11-11T09:22:51;102171.56;;;14.07;58.32
28428;BME280;15662;49.128;8.520;2022-11-11T09:25:38;102169.78;;;14.09;58.36
28428;BME280;15662;49.128;8.520;2022-11-11T09:28:24;102160.81;;;14.13;58.32
28428;BME280;15662;49.128;8.520;2022-11-11T09:31:13;102161.63;;;14.20;58.36
28428;BME280;15662;49.128;8.520;2022-11-11T09:34:43;102173.19;;;14.20;58.45
28428;BME280;15662;49.128;8.520;2022-11-11T09:37:56;102165.09;;;14.27;58.32
28428;BME280;15662;49.128;8.520;2022-11-11T09:41:19;102169.41;;;14.40;58.46
28428;BME280;15662;49.128;8.520;2022-11-11T09:47:52;102175.56;;;14.45;58.37
28428;BME280;15662;49.128;8.520;2022-11-11T09:50:53;102180.88;;;14.50;58.25
28428;BME280;15662;49.128;8.520;2022-11-11T09:53:58;102180.81;;;14.53;58.25
28428;BME280;15662;49.128;8.520;2022-11-11T09:56:49;102186.91;;;14.62;58.32
28428;BME280;15662;49.128;8.520;2022-11-11T09:59:49;102186.78;;;14.71;57.73
28428;BME280;15662;49.128;8.520;2022-11-11T10:02:52;102195.56;;;14.80;57.94
28428;BME280;15662;49.128;8.520;2022-11-11T10:05:55;102199.97;;;14.82;58.15
28428;BME280;15662;49.128;8.520;2022-11-11T10:08:58;102204.44;;;14.83;58.02
28428;BME280;15662;49.128;8.520;2022-11-11T10:12:06;102199.91;;;14.87;57.97
28428;BME280;15662;49.128;8.520;2022-11-11T10:14:54;102197.31;;;14.84;57.80
28428;BME280;15662;49.128;8.520;2022-11-11T10:18:15;102202.44;;;14.96;57.64
28428;BME280;15662;49.128;8.520;2022-11-11T10:21:15;102205.13;;;14.98;57.72
28428;BME280;15662;49.128;8.520;2022-11-11T10:24:16;102205.06;;;15.01;57.47
28428;BME280;15662;49.128;8.520;2022-11-11T10:27:19;102190.78;;;15.02;57.42
28428;BME280;15662;49.128;8.520;2022-11-11T10:30:27;102199.59;;;15.08;57.31
28428;BME280;15662;49.128;8.520;2022-11-11T10:33:29;102197.81;;;15.07;57.41
28428;BME280;15662;49.128;8.520;2022-11-11T10:36:20;102202.28;;;15.08;57.50
28428;BME280;15662;49.128;8.520;2022-11-11T10:39:19;102199.53;;;15.13;57.52
28428;BME280;15662;49.128;8.520;2022-11-11T10:42:17;102187.00;;;15.16;57.38
28428;BME280;15662;49.128;8.520;2022-11-11T10:48:22;102179.72;;;15.26;57.39
28428;BME280;15662;49.128;8.520;2022-11-11T10:51:12;102169.94;;;15.25;57.30
28428;BME280;15662;49.128;8.520;2022-11-11T10:54:10;102161.84;;;15.30;57.21
28428;BME280;15662;49.128;8.520;2022-11-11T10:57:54;102166.25;;;15.34;57.06
28428;BME280;15662;49.128;8.520;2022-11-11T11:00:44;102159.13;;;15.33;57.43
28428;BME280;15662;49.128;8.520;2022-11-11T11:03:36;102152.00;;;15.32;56.97
28428;BME280;15662;49.128;8.520;2022-11-11T11:06:27;102143.19;;;15.27;56.84
28428;BME280;15662;49.128;8.520;2022-11-11T11:09:52;102138.75;;;15.26;56.93
28428;BME280;15662;49.128;8.520;2022-11-11T11:12:51;102139.06;;;15.09;57.42
28428;BME280;15662;49.128;8.520;2022-11-11T11:15:49;102131.81;;;15.15;57.04
28428;BME280;15662;49.128;8.520;2022-11-11T11:18:39;102136.13;;;15.24;57.14
28428;BME280;15662;49.128;8.520;2022-11-11T11:21:57;102125.38;;;15.29;56.60
28428;BME280;15662;49.128;8.520;2022-11-11T11:24:44;102131.66;;;15.25;56.83
28428;BME280;15662;49.128;8.520;2022-11-11T11:27:31;102126.34;;;15.23;56.76
28428;BME280;15662;49.128;8.520;2022-11-11T11:30:21;102126.34;;;15.21;56.85
28428;BME280;15662;49.128;8.520;2022-11-11T11:33:08;102127.25;;;15.22;56.95
28428;BME280;15662;49.128;8.520;2022-11-11T11:35:55;102127.25;;;15.22;57.00
28428;BME280;15662;49.128;8.520;2022-11-11T11:38:46;102119.13;;;15.28;57.06
28428;BME280;15662;49.128;8.520;2022-11-11T11:41:43;102127.00;;;15.36;57.00
28428;BME280;15662;49.128;8.520;2022-11-11T11:44:35;102120.75;;;15.37;56.97
28428;BME280;15662;49.128;8.520;2022-11-11T11:50:50;102119.81;;;15.39;56.81
28428;BME280;15662;49.128;8.520;2022-11-11T11:57:45;102104.75;;;15.35;56.67
28428;BME280;15662;49.128;8.520;2022-11-11T12:00:41;102109.56;;;15.15;57.21
28428;BME280;15662;49.128;8.520;2022-11-11T12:07:23;102121.78;;;15.30;56.76
28428;BME280;15662;49.128;8.520;2022-11-11T12:10:26;102124.50;;;15.27;56.93
28428;BME280;15662;49.128;8.520;2022-11-11T12:13:56;102120.13;;;15.22;57.00
28428;BME280;15662;49.128;8.520;2022-11-11T12:17:22;102120.22;;;15.16;57.03
28428;BME280;15662;49.128;8.520;2022-11-11T12:27:04;102133.78;;;15.04;57.01
28428;BME280;15662;49.128;8.520;2022-11-11T12:30:13;102129.28;;;15.06;57.39
28428;BME280;15662;49.128;8.520;2022-11-11T12:58:30;102129.56;;;15.43;57.45
28428;BME280;15662;49.128;8.520;2022-11-11T13:02:06;102111.84;;;15.38;57.69
28428;BME280;15662;49.128;8.520;2022-11-11T13:17:51;102110.28;;;15.25;57.71
28428;BME280;15662;49.128;8.520;2022-11-11T13:20:53;102112.94;;;15.26;57.66
28428;BME280;15662;49.128;8.520;2022-11-11T13:23:42;102116.59;;;15.20;57.67
28428;BME280;15662;49.128;8.520;2022-11-11T13:33:16;102115.84;;;15.12;57.92
28428;BME280;15662;49.128;8.520;2022-11-11T13:36:15;102116.69;;;15.14;58.05
28428;BME280;15662;49.128;8.520;2022-11-11T13:39:02;102102.50;;;15.11;58.10
28428;BME280;15662;49.128;8.520;2022-11-11T13:41:53;102106.09;;;15.10;58.32
28428;BME280;15662;49.128;8.520;2022-11-11T13:44:54;102106.06;;;15.11;58.18
28428;BME280;15662;49.128;8.520;2022-11-11T13:47:44;102106.16;;;15.05;58.32
28428;BME280;15662;49.128;8.520;2022-11-11T13:50:37;102105.22;;;15.09;58.41
28428;BME280;15662;49.128;8.520;2022-11-11T13:53:30;102114.03;;;15.14;58.30
28428;BME280;15662;49.128;8.520;2022-11-11T13:56:43;102117.47;;;15.21;58.15
28428;BME280;15662;49.128;8.520;2022-11-11T13:59:36;102118.38;;;15.20;58.12
28428;BME280;15662;49.128;8.520;2022-11-11T14:02:34;102124.53;;;15.25;58.23
28428;BME280;15662;49.128;8.520;2022-11-11T14:05:21;102112.00;;;15.29;58.24
28428;BME280;15662;49.128;8.520;2022-11-11T14:08:08;102106.59;;;15.32;58.10
28428;BME280;15662;49.128;8.520;2022-11-11T14:10:58;102108.38;;;15.31;58.11
28428;BME280;15662;49.128;8.520;2022-11-11T14:13:45;102109.25;;;15.33;58.04
28428;BME280;15662;49.128;8.520;2022-11-11T14:22:33;102119.88;;;15.36;57.90
28428;BME280;15662;49.128;8.520;2022-11-11T14:25:27;102123.38;;;15.40;57.91
28428;BME280;15662;49.128;8.520;2022-11-11T14:28:30;102122.47;;;15.41;57.80
28428;BME280;15662;49.128;8.520;2022-11-11T14:34:43;102120.66;;;15.41;57.84
28428;BME280;15662;49.128;8.520;2022-11-11T14:40:55;102120.69;;;15.40;57.87
28428;BME280;15662;49.128;8.520;2022-11-11T14:43:41;102127.81;;;15.42;57.92
28428;BME280;15662;49.128;8.520;2022-11-11T14:46:28;102124.16;;;15.45;57.89
28428;BME280;15662;49.128;8.520;2022-11-11T14:49:45;102115.19;;;15.49;57.64
28428;BME280;15662;49.128;8.520;2022-11-11T14:52:43;102124.09;;;15.49;57.66
28428;BME280;15662;49.128;8.520;2022-11-11T14:55:35;102118.78;;;15.46;57.57
28428;BME280;15662;49.128;8.520;2022-11-11T14:58:32;102113.56;;;15.40;57.58
28428;BME280;15662;49.128;8.520;2022-11-11T15:01:21;102118.97;;;15.37;57.59
28428;BME280;15662;49.128;8.520;2022-11-11T15:04:08;102123.41;;;15.37;57.66
28428;BME280;15662;49.128;8.520;2022-11-11T15:07:00;102120.75;;;15.38;57.63
28428;BME280;15662;49.128;8.520;2022-11-11T15:16:13;102120.75;;;15.37;57.59
28428;BME280;15662;49.128;8.520;2022-11-11T15:32:53;102130.91;;;15.18;57.76
28428;BME280;15662;49.128;8.520;2022-11-11T15:39:13;102119.28;;;15.19;57.72
28428;BME280;15662;49.128;8.520;2022-11-11T15:42:01;102123.78;;;15.15;57.74
28428;BME280;15662;49.128;8.520;2022-11-11T15:44:50;102119.41;;;15.13;57.82
28428;BME280;15662;49.128;8.520;2022-11-11T15:47:37;102124.72;;;15.14;57.68
28428;BME280;15662;49.128;8.520;2022-11-11T15:50:33;102122.00;;;15.16;57.63
28428;BME280;15662;49.128;8.520;2022-11-11T15:53:26;102114.00;;;15.16;57.68
28428;BME280;15662;49.128;8.520;2022-11-11T15:56:32;102112.25;;;15.15;57.77
28428;BME280;15662;49.128;8.520;2022-11-11T15:59:28;102109.59;;;15.12;57.72
28428;BME280;15662;49.128;8.520;2022-11-11T16:02:20;102117.56;;;15.15;57.87
28428;BME280;15662;49.128;8.520;2022-11-11T16:05:36;102126.44;;;15.18;57.53
28428;BME280;15662;49.128;8.520;2022-11-11T16:08:23;102132.63;;;15.20;57.82
28428;BME280;15662;49.128;8.520;2022-11-11T16:11:13;102132.56;;;15.22;57.96
28428;BME280;15662;49.128;8.520;2022-11-11T16:14:05;102118.41;;;15.17;57.58
28428;BME280;15662;49.128;8.520;2022-11-11T16:16:57;102129.91;;;15.22;57.54
28428;BME280;15662;49.128;8.520;2022-11-11T16:19:48;102132.66;;;15.19;57.69
28428;BME280;15662;49.128;8.520;2022-11-11T16:22:39;102126.44;;;15.17;57.53
28428;BME280;15662;49.128;8.520;2022-11-11T16:25:28;102138.97;;;15.12;57.65
28428;BME280;15662;49.128;8.520;2022-11-11T16:28:16;102146.97;;;15.15;57.85
28428;BME280;15662;49.128;8.520;2022-11-11T16:31:21;102142.53;;;15.14;57.61
28428;BME280;15662;49.128;8.520;2022-11-11T16:37:17;102139.13;;;15.04;57.85
28428;BME280;15662;49.128;8.520;2022-11-11T16:43:34;102144.47;;;15.04;57.67
28428;BME280;15662;49.128;8.520;2022-11-11T16:49:39;102132.09;;;14.97;57.90
28428;BME280;15662;49.128;8.520;2022-11-11T16:52:28;102136.56;;;14.96;58.00
28428;BME280;15662;49.128;8.520;2022-11-11T16:55:43;102123.25;;;14.95;57.89
28428;BME280;15662;49.128;8.520;2022-11-11T16:58:31;102116.28;;;14.85;58.22
28428;BME280;15662;49.128;8.520;2022-11-11T17:01:18;102111.00;;;14.82;58.24
28428;BME280;15662;49.128;8.520;2022-11-11T17:04:05;102115.44;;;14.81;58.19
28428;BME280;15662;49.128;8.520;2022-11-11T17:06:56;102115.41;;;14.84;58.10